sensor_id;sensor_type;location;lat;lon;timestamp;P1;durP1;ratioP1;P2;durP2;ratioP2
12567;SDS011;6349;50.904;6.136;2023-03-01T00:01:22;3.80;;;3.40;;
12567;SDS011;6349;50.904;6.136;2023-03-01T00:03:24;4.80;;;3.10;;
12567;SDS011;6349;50.904;6.136;2023-03-01T00:05:25;3.53;;;3.23;;
12567;SDS011;6349;50.904;6.136;2023-03-01T00:07:26;4.00;;;3.00;;
12567;SDS011;6349;50.904;6.136;2023-03-01T00:09:27;3.80;;;3.30;;
12567;SDS011;6349;50.904;6.136;2023-03-01T00:11:28;3.80;;;3.40;;
12567;SDS011;6349;50.904;6.136;2023-03-01T00:13:30;4.07;;;3.20;;
12567;SDS011;6349;50.904;6.136;2023-03-01T00:15:31;4.07;;;3.30;;
12567;SDS011;6349;50.904;6.136;2023-03-01T00:17:32;3.80;;;3.37;;
12567;SDS011;6349;50.904;6.136;2023-03-01T00:19:32;4.73;;;3.70;;
12567;SDS011;6349;50.904;6.136;2023-03-01T00:21:33;5.67;;;3.70;;
12567;SDS011;6349;50.904;6.136;2023-03-01T00:23:35;5.30;;;3.80;;
12567;SDS011;6349;50.904;6.136;2023-03-01T00:25:40;5.63;;;3.80;;
12567;SDS011;6349;50.904;6.136;2023-03-01T00:27:41;3.93;;;3.50;;
12567;SDS011;6349;50.904;6.136;2023-03-01T00:29:42;4.63;;;3.87;;
12567;SDS011;6349;50.904;6.136;2023-03-01T00:31:43;5.63;;;4.10;;
12567;SDS011;6349;50.904;6.136;2023-03-01T00:33:43;6.03;;;3.87;;
12567;SDS011;6349;50.904;6.136;2023-03-01T00:35:44;5.93;;;4.17;;
12567;SDS011;6349;50.904;6.136;2023-03-01T00:37:45;4.43;;;3.97;;
12567;SDS011;6349;50.904;6.136;2023-03-01T00:39:46;4.20;;;3.80;;
12567;SDS011;6349;50.904;6.136;2023-03-01T00:41:46;4.87;;;4.37;;
12567;SDS011;6349;50.904;6.136;2023-03-01T00:43:47;4.40;;;4.00;;
12567;SDS011;6349;50.904;6.136;2023-03-01T00:45:48;4.60;;;4.20;;
12567;SDS011;6349;50.904;6.136;2023-03-01T00:47:49;4.90;;;4.00;;
12567;SDS011;6349;50.904;6.136;2023-03-01T00:49:50;4.30;;;3.90;;
12567;SDS011;6349;50.904;6.136;2023-03-01T00:51:51;4.17;;;3.77;;
12567;SDS011;6349;50.904;6.136;2023-03-01T00:53:53;4.73;;;3.60;;
12567;SDS011;6349;50.904;6.136;2023-03-01T00:55:56;4.50;;;4.00;;
12567;SDS011;6349;50.904;6.136;2023-03-01T00:57:58;5.00;;;3.93;;
12567;SDS011;6349;50.904;6.136;2023-03-01T00:59:58;6.20;;;4.30;;
12567;SDS011;6349;50.904;6.136;2023-03-01T01:01:59;7.27;;;4.50;;
12567;SDS011;6349;50.904;6.136;2023-03-01T01:06:14;5.37;;;4.20;;
12567;SDS011;6349;50.904;6.136;2023-03-01T01:08:17;5.67;;;4.10;;
12567;SDS011;6349;50.904;6.136;2023-03-01T01:10:18;5.77;;;4.13;;
12567;SDS011;6349;50.904;6.136;2023-03-01T01:12:19;4.70;;;3.90;;
12567;SDS011;6349;50.904;6.136;2023-03-01T01:14:19;6.03;;;4.53;;
12567;SDS011;6349;50.904;6.136;2023-03-01T01:16:21;5.47;;;4.20;;
12567;SDS011;6349;50.904;6.136;2023-03-01T01:18:23;6.40;;;4.23;;
12567;SDS011;6349;50.904;6.136;2023-03-01T01:20:23;4.97;;;4.07;;
12567;SDS011;6349;50.904;6.136;2023-03-01T01:22:24;4.70;;;3.97;;
12567;SDS011;6349;50.904;6.136;2023-03-01T01:24:24;5.20;;;4.07;;
12567;SDS011;6349;50.904;6.136;2023-03-01T01:26:27;4.93;;;3.90;;
12567;SDS011;6349;50.904;6.136;2023-03-01T01:28:29;4.60;;;3.90;;
12567;SDS011;6349;50.904;6.136;2023-03-01T01:30:30;4.67;;;3.70;;
12567;SDS011;6349;50.904;6.136;2023-03-01T01:32:30;4.10;;;3.70;;
12567;SDS011;6349;50.904;6.136;2023-03-01T01:34:31;4.87;;;3.93;;
12567;SDS011;6349;50.904;6.136;2023-03-01T01:36:32;5.43;;;4.30;;
12567;SDS011;6349;50.904;6.136;2023-03-01T01:38:34;5.50;;;3.70;;
12567;SDS011;6349;50.904;6.136;2023-03-01T01:40:42;5.77;;;4.40;;
12567;SDS011;6349;50.904;6.136;2023-03-01T01:42:46;5.53;;;4.60;;
12567;SDS011;6349;50.904;6.136;2023-03-01T01:44:47;5.60;;;4.00;;
12567;SDS011;6349;50.904;6.136;2023-03-01T01:46:56;4.77;;;4.13;;
12567;SDS011;6349;50.904;6.136;2023-03-01T01:49:01;5.63;;;4.40;;
12567;SDS011;6349;50.904;6.136;2023-03-01T01:51:09;6.80;;;4.47;;
12567;SDS011;6349;50.904;6.136;2023-03-01T01:53:18;5.77;;;4.23;;
12567;SDS011;6349;50.904;6.136;2023-03-01T01:55:23;4.50;;;3.77;;
12567;SDS011;6349;50.904;6.136;2023-03-01T01:57:29;4.63;;;4.13;;
12567;SDS011;6349;50.904;6.136;2023-03-01T01:59:48;5.40;;;3.97;;
12567;SDS011;6349;50.904;6.136;2023-03-01T02:01:52;5.57;;;4.03;;
12567;SDS011;6349;50.904;6.136;2023-03-01T02:03:53;5.83;;;3.90;;
12567;SDS011;6349;50.904;6.136;2023-03-01T02:05:56;5.63;;;3.73;;
12567;SDS011;6349;50.904;6.136;2023-03-01T02:08:19;4.57;;;4.00;;
12567;SDS011;6349;50.904;6.136;2023-03-01T02:10:22;4.53;;;4.13;;
12567;SDS011;6349;50.904;6.136;2023-03-01T02:12:24;4.87;;;4.17;;
12567;SDS011;6349;50.904;6.136;2023-03-01T02:14:25;4.57;;;4.13;;
12567;SDS011;6349;50.904;6.136;2023-03-01T02:16:26;5.27;;;4.10;;
12567;SDS011;6349;50.904;6.136;2023-03-01T02:18:27;4.30;;;3.77;;
12567;SDS011;6349;50.904;6.136;2023-03-01T02:20:32;5.20;;;4.33;;
12567;SDS011;6349;50.904;6.136;2023-03-01T02:22:55;5.23;;;4.13;;
12567;SDS011;6349;50.904;6.136;2023-03-01T02:27:19;5.47;;;4.30;;
12567;SDS011;6349;50.904;6.136;2023-03-01T02:29:26;5.50;;;4.50;;
12567;SDS011;6349;50.904;6.136;2023-03-01T02:31:28;4.70;;;4.00;;
12567;SDS011;6349;50.904;6.136;2023-03-01T02:33:44;6.50;;;3.90;;
12567;SDS011;6349;50.904;6.136;2023-03-01T02:35:48;5.33;;;4.00;;
12567;SDS011;6349;50.904;6.136;2023-03-01T02:37:48;5.47;;;4.20;;
12567;SDS011;6349;50.904;6.136;2023-03-01T02:39:53;5.43;;;4.00;;
12567;SDS011;6349;50.904;6.136;2023-03-01T02:41:59;4.93;;;3.80;;
12567;SDS011;6349;50.904;6.136;2023-03-01T02:44:03;6.57;;;4.47;;
12567;SDS011;6349;50.904;6.136;2023-03-01T02:46:06;5.47;;;4.23;;
12567;SDS011;6349;50.904;6.136;2023-03-01T02:48:08;5.37;;;4.00;;
12567;SDS011;6349;50.904;6.136;2023-03-01T02:50:15;5.67;;;4.40;;
12567;SDS011;6349;50.904;6.136;2023-03-01T02:52:41;5.07;;;4.17;;
12567;SDS011;6349;50.904;6.136;2023-03-01T02:55:19;4.47;;;4.03;;
12567;SDS011;6349;50.904;6.136;2023-03-01T02:57:13;4.97;;;4.30;;
12567;SDS011;6349;50.904;6.136;2023-03-01T02:59:15;6.43;;;4.10;;
12567;SDS011;6349;50.904;6.136;2023-03-01T03:01:19;5.50;;;4.43;;
12567;SDS011;6349;50.904;6.136;2023-03-01T03:03:20;5.47;;;4.53;;
12567;SDS011;6349;50.904;6.136;2023-03-01T03:05:25;5.53;;;4.63;;
12567;SDS011;6349;50.904;6.136;2023-03-01T03:07:28;4.73;;;4.33;;
12567;SDS011;6349;50.904;6.136;2023-03-01T03:09:28;4.60;;;4.20;;
12567;SDS011;6349;50.904;6.136;2023-03-01T03:11:29;6.83;;;4.80;;
12567;SDS011;6349;50.904;6.136;2023-03-01T03:13:30;4.60;;;4.10;;
12567;SDS011;6349;50.904;6.136;2023-03-01T03:15:32;4.53;;;4.10;;
12567;SDS011;6349;50.904;6.136;2023-03-01T03:17:36;4.93;;;4.30;;
12567;SDS011;6349;50.904;6.136;2023-03-01T03:19:38;5.80;;;4.50;;
12567;SDS011;6349;50.904;6.136;2023-03-01T03:21:39;5.60;;;4.43;;
12567;SDS011;6349;50.904;6.136;2023-03-01T03:23:39;5.93;;;4.87;;
12567;SDS011;6349;50.904;6.136;2023-03-01T03:25:40;7.73;;;4.50;;
12567;SDS011;6349;50.904;6.136;2023-03-01T03:27:41;6.10;;;4.40;;
12567;SDS011;6349;50.904;6.136;2023-03-01T03:29:44;4.67;;;4.17;;
12567;SDS011;6349;50.904;6.136;2023-03-01T03:31:44;4.70;;;4.20;;
12567;SDS011;6349;50.904;6.136;2023-03-01T03:33:45;5.13;;;4.40;;
12567;SDS011;6349;50.904;6.136;2023-03-01T03:35:47;7.67;;;4.73;;
12567;SDS011;6349;50.904;6.136;2023-03-01T03:37:57;5.83;;;4.80;;
12567;SDS011;6349;50.904;6.136;2023-03-01T03:40:03;5.73;;;4.80;;
12567;SDS011;6349;50.904;6.136;2023-03-01T03:42:15;5.03;;;4.27;;
12567;SDS011;6349;50.904;6.136;2023-03-01T03:44:15;4.70;;;4.30;;
12567;SDS011;6349;50.904;6.136;2023-03-01T03:46:16;7.47;;;4.67;;
12567;SDS011;6349;50.904;6.136;2023-03-01T03:48:17;5.50;;;4.57;;
12567;SDS011;6349;50.904;6.136;2023-03-01T03:50:17;5.63;;;4.50;;
12567;SDS011;6349;50.904;6.136;2023-03-01T03:52:18;6.10;;;4.60;;
12567;SDS011;6349;50.904;6.136;2023-03-01T03:54:19;5.07;;;4.53;;
12567;SDS011;6349;50.904;6.136;2023-03-01T03:56:19;5.60;;;4.40;;
12567;SDS011;6349;50.904;6.136;2023-03-01T03:58:21;6.50;;;5.00;;
12567;SDS011;6349;50.904;6.136;2023-03-01T04:00:23;5.50;;;4.90;;
12567;SDS011;6349;50.904;6.136;2023-03-01T04:02:23;5.60;;;4.87;;
12567;SDS011;6349;50.904;6.136;2023-03-01T04:04:25;4.87;;;4.37;;
12567;SDS011;6349;50.904;6.136;2023-03-01T04:06:26;5.07;;;4.50;;
12567;SDS011;6349;50.904;6.136;2023-03-01T04:08:27;4.93;;;4.20;;
12567;SDS011;6349;50.904;6.136;2023-03-01T04:10:29;4.90;;;4.40;;
12567;SDS011;6349;50.904;6.136;2023-03-01T04:12:33;5.70;;;4.90;;
12567;SDS011;6349;50.904;6.136;2023-03-01T04:14:38;5.30;;;4.80;;
12567;SDS011;6349;50.904;6.136;2023-03-01T04:16:38;5.53;;;5.00;;
12567;SDS011;6349;50.904;6.136;2023-03-01T04:18:39;5.33;;;4.83;;
12567;SDS011;6349;50.904;6.136;2023-03-01T04:20:39;5.10;;;4.60;;
12567;SDS011;6349;50.904;6.136;2023-03-01T04:22:40;6.07;;;4.90;;
12567;SDS011;6349;50.904;6.136;2023-03-01T04:24:41;6.87;;;5.07;;
12567;SDS011;6349;50.904;6.136;2023-03-01T04:26:42;5.77;;;4.70;;
12567;SDS011;6349;50.904;6.136;2023-03-01T04:28:42;6.00;;;5.17;;
12567;SDS011;6349;50.904;6.136;2023-03-01T04:30:45;5.17;;;4.67;;
12567;SDS011;6349;50.904;6.136;2023-03-01T04:32:45;6.97;;;5.07;;
12567;SDS011;6349;50.904;6.136;2023-03-01T04:34:46;5.70;;;4.60;;
12567;SDS011;6349;50.904;6.136;2023-03-01T04:36:46;6.67;;;4.53;;
12567;SDS011;6349;50.904;6.136;2023-03-01T04:38:47;6.07;;;4.50;;
12567;SDS011;6349;50.904;6.136;2023-03-01T04:40:48;6.17;;;4.50;;
12567;SDS011;6349;50.904;6.136;2023-03-01T04:42:49;5.17;;;4.37;;
12567;SDS011;6349;50.904;6.136;2023-03-01T04:44:49;5.07;;;4.40;;
12567;SDS011;6349;50.904;6.136;2023-03-01T04:46:51;5.13;;;4.57;;
12567;SDS011;6349;50.904;6.136;2023-03-01T04:48:51;5.17;;;4.50;;
12567;SDS011;6349;50.904;6.136;2023-03-01T04:50:52;4.73;;;4.23;;
12567;SDS011;6349;50.904;6.136;2023-03-01T04:52:53;5.77;;;4.80;;
12567;SDS011;6349;50.904;6.136;2023-03-01T04:54:53;5.10;;;4.40;;
12567;SDS011;6349;50.904;6.136;2023-03-01T04:56:54;5.13;;;4.60;;
12567;SDS011;6349;50.904;6.136;2023-03-01T04:58:55;5.43;;;4.53;;
12567;SDS011;6349;50.904;6.136;2023-03-01T05:00:55;5.17;;;4.57;;
12567;SDS011;6349;50.904;6.136;2023-03-01T05:02:57;4.83;;;4.33;;
12567;SDS011;6349;50.904;6.136;2023-03-01T05:05:00;5.67;;;4.70;;
12567;SDS011;6349;50.904;6.136;2023-03-01T05:07:00;5.20;;;4.70;;
12567;SDS011;6349;50.904;6.136;2023-03-01T05:09:01;7.13;;;5.50;;
12567;SDS011;6349;50.904;6.136;2023-03-01T05:11:01;6.83;;;5.47;;
12567;SDS011;6349;50.904;6.136;2023-03-01T05:13:02;6.03;;;5.00;;
12567;SDS011;6349;50.904;6.136;2023-03-01T05:15:04;7.07;;;5.70;;
12567;SDS011;6349;50.904;6.136;2023-03-01T05:17:07;5.83;;;5.07;;
12567;SDS011;6349;50.904;6.136;2023-03-01T05:19:07;6.40;;;5.53;;
12567;SDS011;6349;50.904;6.136;2023-03-01T05:21:16;6.47;;;5.60;;
12567;SDS011;6349;50.904;6.136;2023-03-01T05:23:16;6.27;;;5.50;;
12567;SDS011;6349;50.904;6.136;2023-03-01T05:25:18;7.33;;;5.40;;
12567;SDS011;6349;50.904;6.136;2023-03-01T05:27:19;5.60;;;5.07;;
12567;SDS011;6349;50.904;6.136;2023-03-01T05:29:22;6.33;;;5.47;;
12567;SDS011;6349;50.904;6.136;2023-03-01T05:31:25;5.43;;;4.93;;
12567;SDS011;6349;50.904;6.136;2023-03-01T05:33:26;6.17;;;4.80;;
12567;SDS011;6349;50.904;6.136;2023-03-01T05:35:27;6.30;;;5.43;;
12567;SDS011;6349;50.904;6.136;2023-03-01T05:37:29;6.33;;;5.23;;
12567;SDS011;6349;50.904;6.136;2023-03-01T05:39:30;6.77;;;5.37;;
12567;SDS011;6349;50.904;6.136;2023-03-01T05:41:31;6.70;;;5.40;;
12567;SDS011;6349;50.904;6.136;2023-03-01T05:43:32;6.17;;;5.27;;
12567;SDS011;6349;50.904;6.136;2023-03-01T05:45:35;5.97;;;4.97;;
12567;SDS011;6349;50.904;6.136;2023-03-01T05:47:37;6.63;;;5.60;;
12567;SDS011;6349;50.904;6.136;2023-03-01T05:49:43;6.17;;;5.20;;
12567;SDS011;6349;50.904;6.136;2023-03-01T05:51:47;5.80;;;5.20;;
12567;SDS011;6349;50.904;6.136;2023-03-01T05:53:51;5.33;;;4.83;;
12567;SDS011;6349;50.904;6.136;2023-03-01T05:55:51;7.13;;;5.97;;
12567;SDS011;6349;50.904;6.136;2023-03-01T05:57:52;6.73;;;5.70;;
12567;SDS011;6349;50.904;6.136;2023-03-01T05:59:54;8.20;;;5.17;;
12567;SDS011;6349;50.904;6.136;2023-03-01T06:01:56;6.13;;;5.20;;
12567;SDS011;6349;50.904;6.136;2023-03-01T06:03:58;5.47;;;4.80;;
12567;SDS011;6349;50.904;6.136;2023-03-01T06:06:00;5.67;;;5.07;;
12567;SDS011;6349;50.904;6.136;2023-03-01T06:08:01;5.97;;;4.67;;
12567;SDS011;6349;50.904;6.136;2023-03-01T06:10:03;7.00;;;5.40;;
12567;SDS011;6349;50.904;6.136;2023-03-01T06:12:06;7.20;;;5.63;;
12567;SDS011;6349;50.904;6.136;2023-03-01T06:14:08;6.53;;;5.90;;
12567;SDS011;6349;50.904;6.136;2023-03-01T06:16:11;6.60;;;5.40;;
12567;SDS011;6349;50.904;6.136;2023-03-01T06:18:14;7.63;;;5.67;;
12567;SDS011;6349;50.904;6.136;2023-03-01T06:20:16;5.93;;;5.33;;
12567;SDS011;6349;50.904;6.136;2023-03-01T06:22:19;6.13;;;5.50;;
12567;SDS011;6349;50.904;6.136;2023-03-01T06:24:20;6.40;;;5.40;;
12567;SDS011;6349;50.904;6.136;2023-03-01T06:26:22;7.83;;;4.97;;
12567;SDS011;6349;50.904;6.136;2023-03-01T06:28:24;6.13;;;4.93;;
12567;SDS011;6349;50.904;6.136;2023-03-01T06:30:26;6.63;;;5.30;;
12567;SDS011;6349;50.904;6.136;2023-03-01T06:32:28;7.20;;;5.30;;
12567;SDS011;6349;50.904;6.136;2023-03-01T06:34:30;7.07;;;5.50;;
12567;SDS011;6349;50.904;6.136;2023-03-01T06:36:33;6.80;;;5.43;;
12567;SDS011;6349;50.904;6.136;2023-03-01T06:38:34;6.23;;;5.47;;
12567;SDS011;6349;50.904;6.136;2023-03-01T06:40:36;6.90;;;5.50;;
12567;SDS011;6349;50.904;6.136;2023-03-01T06:42:38;6.40;;;5.53;;
12567;SDS011;6349;50.904;6.136;2023-03-01T06:44:42;7.80;;;6.00;;
12567;SDS011;6349;50.904;6.136;2023-03-01T06:46:44;5.93;;;5.13;;
12567;SDS011;6349;50.904;6.136;2023-03-01T06:48:46;5.53;;;5.00;;
12567;SDS011;6349;50.904;6.136;2023-03-01T06:50:47;5.17;;;4.67;;
12567;SDS011;6349;50.904;6.136;2023-03-01T06:52:48;6.00;;;4.80;;
12567;SDS011;6349;50.904;6.136;2023-03-01T06:54:55;5.97;;;5.20;;
12567;SDS011;6349;50.904;6.136;2023-03-01T06:56:56;7.97;;;5.23;;
12567;SDS011;6349;50.904;6.136;2023-03-01T06:58:58;6.17;;;5.50;;
12567;SDS011;6349;50.904;6.136;2023-03-01T07:01:00;7.07;;;4.73;;
12567;SDS011;6349;50.904;6.136;2023-03-01T07:03:07;5.87;;;5.10;;
12567;SDS011;6349;50.904;6.136;2023-03-01T07:05:08;5.90;;;5.30;;
12567;SDS011;6349;50.904;6.136;2023-03-01T07:07:10;6.53;;;5.27;;
12567;SDS011;6349;50.904;6.136;2023-03-01T07:09:12;7.33;;;6.43;;
12567;SDS011;6349;50.904;6.136;2023-03-01T07:11:13;6.17;;;5.50;;
12567;SDS011;6349;50.904;6.136;2023-03-01T07:13:15;7.20;;;5.80;;
12567;SDS011;6349;50.904;6.136;2023-03-01T07:15:17;6.53;;;5.73;;
12567;SDS011;6349;50.904;6.136;2023-03-01T07:17:18;6.97;;;6.10;;
12567;SDS011;6349;50.904;6.136;2023-03-01T07:19:20;6.57;;;5.43;;
12567;SDS011;6349;50.904;6.136;2023-03-01T07:21:22;6.20;;;5.47;;
12567;SDS011;6349;50.904;6.136;2023-03-01T07:23:24;7.30;;;5.90;;
12567;SDS011;6349;50.904;6.136;2023-03-01T07:25:26;6.47;;;5.87;;
12567;SDS011;6349;50.904;6.136;2023-03-01T07:27:28;6.57;;;5.83;;
12567;SDS011;6349;50.904;6.136;2023-03-01T07:29:29;6.77;;;5.70;;
12567;SDS011;6349;50.904;6.136;2023-03-01T07:31:30;5.87;;;5.30;;
12567;SDS011;6349;50.904;6.136;2023-03-01T07:33:32;6.17;;;5.40;;
12567;SDS011;6349;50.904;6.136;2023-03-01T07:35:33;6.47;;;5.70;;
12567;SDS011;6349;50.904;6.136;2023-03-01T07:37:34;7.53;;;6.07;;
12567;SDS011;6349;50.904;6.136;2023-03-01T07:39:36;7.07;;;6.10;;
12567;SDS011;6349;50.904;6.136;2023-03-01T07:41:37;8.20;;;6.07;;
12567;SDS011;6349;50.904;6.136;2023-03-01T07:43:39;7.77;;;6.20;;
12567;SDS011;6349;50.904;6.136;2023-03-01T07:45:41;6.37;;;5.77;;
12567;SDS011;6349;50.904;6.136;2023-03-01T07:47:44;7.37;;;6.00;;
12567;SDS011;6349;50.904;6.136;2023-03-01T07:49:45;6.80;;;6.00;;
12567;SDS011;6349;50.904;6.136;2023-03-01T07:51:47;6.67;;;5.97;;
12567;SDS011;6349;50.904;6.136;2023-03-01T07:53:48;7.23;;;5.70;;
12567;SDS011;6349;50.904;6.136;2023-03-01T07:55:49;6.50;;;5.83;;
12567;SDS011;6349;50.904;6.136;2023-03-01T07:57:51;7.37;;;5.60;;
12567;SDS011;6349;50.904;6.136;2023-03-01T07:59:52;7.87;;;6.03;;
12567;SDS011;6349;50.904;6.136;2023-03-01T08:01:55;7.17;;;6.33;;
12567;SDS011;6349;50.904;6.136;2023-03-01T08:03:58;8.10;;;5.63;;
12567;SDS011;6349;50.904;6.136;2023-03-01T08:06:00;7.43;;;6.10;;
12567;SDS011;6349;50.904;6.136;2023-03-01T08:08:03;7.70;;;6.70;;
12567;SDS011;6349;50.904;6.136;2023-03-01T08:10:05;7.60;;;6.27;;
12567;SDS011;6349;50.904;6.136;2023-03-01T08:12:06;7.37;;;6.30;;
12567;SDS011;6349;50.904;6.136;2023-03-01T08:14:08;8.27;;;6.23;;
12567;SDS011;6349;50.904;6.136;2023-03-01T08:16:12;7.27;;;6.33;;
12567;SDS011;6349;50.904;6.136;2023-03-01T08:18:16;7.57;;;6.60;;
12567;SDS011;6349;50.904;6.136;2023-03-01T08:20:19;6.97;;;6.27;;
12567;SDS011;6349;50.904;6.136;2023-03-01T08:22:21;8.00;;;6.47;;
12567;SDS011;6349;50.904;6.136;2023-03-01T08:24:22;8.27;;;6.60;;
12567;SDS011;6349;50.904;6.136;2023-03-01T08:26:24;7.03;;;6.33;;
12567;SDS011;6349;50.904;6.136;2023-03-01T08:28:25;7.70;;;6.67;;
12567;SDS011;6349;50.904;6.136;2023-03-01T08:30:26;9.40;;;7.33;;
12567;SDS011;6349;50.904;6.136;2023-03-01T08:32:28;9.33;;;7.33;;
12567;SDS011;6349;50.904;6.136;2023-03-01T08:34:28;10.03;;;7.20;;
12567;SDS011;6349;50.904;6.136;2023-03-01T08:36:32;8.13;;;7.23;;
12567;SDS011;6349;50.904;6.136;2023-03-01T08:38:37;8.27;;;7.17;;
12567;SDS011;6349;50.904;6.136;2023-03-01T08:40:39;8.33;;;7.47;;
12567;SDS011;6349;50.904;6.136;2023-03-01T08:42:41;9.67;;;7.30;;
12567;SDS011;6349;50.904;6.136;2023-03-01T08:44:44;9.90;;;7.70;;
12567;SDS011;6349;50.904;6.136;2023-03-01T08:46:44;10.20;;;8.40;;
12567;SDS011;6349;50.904;6.136;2023-03-01T08:48:47;9.57;;;7.70;;
12567;SDS011;6349;50.904;6.136;2023-03-01T08:50:48;10.03;;;8.10;;
12567;SDS011;6349;50.904;6.136;2023-03-01T08:52:49;10.10;;;8.10;;
12567;SDS011;6349;50.904;6.136;2023-03-01T08:54:50;9.37;;;8.00;;
12567;SDS011;6349;50.904;6.136;2023-03-01T08:56:51;9.97;;;7.87;;
12567;SDS011;6349;50.904;6.136;2023-03-01T08:58:53;11.30;;;7.70;;
12567;SDS011;6349;50.904;6.136;2023-03-01T09:00:54;11.03;;;7.57;;
12567;SDS011;6349;50.904;6.136;2023-03-01T09:02:56;8.93;;;7.60;;
12567;SDS011;6349;50.904;6.136;2023-03-01T09:04:57;8.50;;;7.17;;
12567;SDS011;6349;50.904;6.136;2023-03-01T09:06:58;9.27;;;7.37;;
12567;SDS011;6349;50.904;6.136;2023-03-01T09:08:59;8.93;;;7.47;;
12567;SDS011;6349;50.904;6.136;2023-03-01T09:11:02;9.57;;;7.20;;
12567;SDS011;6349;50.904;6.136;2023-03-01T09:13:04;8.03;;;6.77;;
12567;SDS011;6349;50.904;6.136;2023-03-01T09:15:06;9.43;;;7.37;;
12567;SDS011;6349;50.904;6.136;2023-03-01T09:17:07;8.57;;;7.10;;
12567;SDS011;6349;50.904;6.136;2023-03-01T09:19:07;10.37;;;7.90;;
12567;SDS011;6349;50.904;6.136;2023-03-01T09:21:10;10.30;;;7.53;;
12567;SDS011;6349;50.904;6.136;2023-03-01T09:23:12;9.10;;;7.77;;
12567;SDS011;6349;50.904;6.136;2023-03-01T09:25:13;8.37;;;7.47;;
12567;SDS011;6349;50.904;6.136;2023-03-01T09:27:14;9.37;;;7.63;;
12567;SDS011;6349;50.904;6.136;2023-03-01T09:29:20;11.20;;;7.23;;
12567;SDS011;6349;50.904;6.136;2023-03-01T09:31:21;9.67;;;7.47;;
12567;SDS011;6349;50.904;6.136;2023-03-01T09:33:25;11.27;;;7.97;;
12567;SDS011;6349;50.904;6.136;2023-03-01T09:35:26;7.90;;;7.10;;
12567;SDS011;6349;50.904;6.136;2023-03-01T09:37:28;8.90;;;7.60;;
12567;SDS011;6349;50.904;6.136;2023-03-01T09:39:30;8.73;;;7.43;;
12567;SDS011;6349;50.904;6.136;2023-03-01T09:44:01;8.43;;;7.33;;
12567;SDS011;6349;50.904;6.136;2023-03-01T09:46:11;8.37;;;7.40;;
12567;SDS011;6349;50.904;6.136;2023-03-01T09:48:18;8.77;;;7.33;;
12567;SDS011;6349;50.904;6.136;2023-03-01T09:50:23;8.90;;;7.57;;
12567;SDS011;6349;50.904;6.136;2023-03-01T09:52:29;9.70;;;7.47;;
12567;SDS011;6349;50.904;6.136;2023-03-01T09:54:42;9.67;;;7.67;;
12567;SDS011;6349;50.904;6.136;2023-03-01T09:56:46;9.17;;;7.20;;
12567;SDS011;6349;50.904;6.136;2023-03-01T10:01:59;10.40;;;7.97;;
12567;SDS011;6349;50.904;6.136;2023-03-01T10:04:44;9.03;;;7.53;;
12567;SDS011;6349;50.904;6.136;2023-03-01T10:06:35;8.77;;;7.57;;
12567;SDS011;6349;50.904;6.136;2023-03-01T10:08:38;8.03;;;7.23;;
12567;SDS011;6349;50.904;6.136;2023-03-01T10:11:00;9.37;;;7.17;;
12567;SDS011;6349;50.904;6.136;2023-03-01T10:13:04;9.80;;;7.63;;
12567;SDS011;6349;50.904;6.136;2023-03-01T10:15:18;8.93;;;7.70;;
12567;SDS011;6349;50.904;6.136;2023-03-01T10:20:26;8.93;;;7.57;;
12567;SDS011;6349;50.904;6.136;2023-03-01T10:22:34;10.87;;;7.47;;
12567;SDS011;6349;50.904;6.136;2023-03-01T10:24:38;8.20;;;7.40;;
12567;SDS011;6349;50.904;6.136;2023-03-01T10:26:44;9.43;;;7.60;;
12567;SDS011;6349;50.904;6.136;2023-03-01T10:29:03;8.77;;;7.40;;
12567;SDS011;6349;50.904;6.136;2023-03-01T10:31:18;8.40;;;7.23;;
12567;SDS011;6349;50.904;6.136;2023-03-01T10:33:29;9.30;;;7.50;;
12567;SDS011;6349;50.904;6.136;2023-03-01T10:35:34;9.47;;;7.07;;
12567;SDS011;6349;50.904;6.136;2023-03-01T10:37:36;9.47;;;7.43;;
12567;SDS011;6349;50.904;6.136;2023-03-01T10:40:07;8.53;;;6.97;;
12567;SDS011;6349;50.904;6.136;2023-03-01T10:42:19;9.40;;;7.77;;
12567;SDS011;6349;50.904;6.136;2023-03-01T10:44:46;10.23;;;7.77;;
12567;SDS011;6349;50.904;6.136;2023-03-01T10:46:48;9.43;;;7.50;;
12567;SDS011;6349;50.904;6.136;2023-03-01T10:49:18;8.27;;;7.17;;
12567;SDS011;6349;50.904;6.136;2023-03-01T10:51:22;10.20;;;7.83;;
12567;SDS011;6349;50.904;6.136;2023-03-01T10:53:30;8.77;;;7.87;;
12567;SDS011;6349;50.904;6.136;2023-03-01T10:55:39;9.80;;;7.80;;
12567;SDS011;6349;50.904;6.136;2023-03-01T10:57:41;8.43;;;7.50;;
12567;SDS011;6349;50.904;6.136;2023-03-01T10:59:43;8.50;;;7.37;;
12567;SDS011;6349;50.904;6.136;2023-03-01T11:01:45;9.53;;;8.10;;
12567;SDS011;6349;50.904;6.136;2023-03-01T11:03:52;8.90;;;8.00;;
12567;SDS011;6349;50.904;6.136;2023-03-01T11:06:21;8.30;;;7.40;;
12567;SDS011;6349;50.904;6.136;2023-03-01T11:08:31;8.57;;;7.43;;
12567;SDS011;6349;50.904;6.136;2023-03-01T11:10:35;10.83;;;7.97;;
12567;SDS011;6349;50.904;6.136;2023-03-01T11:12:37;9.93;;;7.87;;
12567;SDS011;6349;50.904;6.136;2023-03-01T11:14:39;8.00;;;7.20;;
12567;SDS011;6349;50.904;6.136;2023-03-01T11:16:49;9.33;;;8.07;;
12567;SDS011;6349;50.904;6.136;2023-03-01T11:21:22;9.37;;;8.00;;
12567;SDS011;6349;50.904;6.136;2023-03-01T11:23:25;10.17;;;7.67;;
12567;SDS011;6349;50.904;6.136;2023-03-01T11:25:32;11.33;;;8.30;;
12567;SDS011;6349;50.904;6.136;2023-03-01T11:27:40;10.53;;;7.77;;
12567;SDS011;6349;50.904;6.136;2023-03-01T11:29:45;10.30;;;8.07;;
12567;SDS011;6349;50.904;6.136;2023-03-01T11:32:08;9.83;;;7.67;;
12567;SDS011;6349;50.904;6.136;2023-03-01T11:34:16;10.43;;;7.83;;
12567;SDS011;6349;50.904;6.136;2023-03-01T11:38:39;9.17;;;7.73;;
12567;SDS011;6349;50.904;6.136;2023-03-01T11:40:43;7.70;;;6.90;;
12567;SDS011;6349;50.904;6.136;2023-03-01T11:43:02;8.90;;;8.00;;
12567;SDS011;6349;50.904;6.136;2023-03-01T11:45:18;8.80;;;7.77;;
12567;SDS011;6349;50.904;6.136;2023-03-01T11:49:54;8.93;;;8.03;;
12567;SDS011;6349;50.904;6.136;2023-03-01T11:52:15;9.23;;;8.17;;
12567;SDS011;6349;50.904;6.136;2023-03-01T11:54:30;8.27;;;7.43;;
12567;SDS011;6349;50.904;6.136;2023-03-01T11:58:05;9.07;;;7.87;;
12567;SDS011;6349;50.904;6.136;2023-03-01T11:59:38;9.57;;;7.80;;
12567;SDS011;6349;50.904;6.136;2023-03-01T12:02:01;8.83;;;7.93;;
12567;SDS011;6349;50.904;6.136;2023-03-01T12:04:32;10.23;;;7.60;;
12567;SDS011;6349;50.904;6.136;2023-03-01T12:06:57;9.07;;;7.50;;
12567;SDS011;6349;50.904;6.136;2023-03-01T12:09:21;8.67;;;7.77;;
12567;SDS011;6349;50.904;6.136;2023-03-01T12:11:47;10.27;;;7.93;;
12567;SDS011;6349;50.904;6.136;2023-03-01T12:17:04;9.00;;;7.53;;
12567;SDS011;6349;50.904;6.136;2023-03-01T12:21:57;8.97;;;7.60;;
12567;SDS011;6349;50.904;6.136;2023-03-01T12:24:11;9.13;;;7.73;;
12567;SDS011;6349;50.904;6.136;2023-03-01T12:31:39;9.00;;;7.37;;
12567;SDS011;6349;50.904;6.136;2023-03-01T12:34:01;8.17;;;7.37;;
12567;SDS011;6349;50.904;6.136;2023-03-01T12:36:31;9.40;;;7.77;;
12567;SDS011;6349;50.904;6.136;2023-03-01T12:38:49;10.37;;;7.73;;
12567;SDS011;6349;50.904;6.136;2023-03-01T12:48:55;8.83;;;7.03;;
12567;SDS011;6349;50.904;6.136;2023-03-01T12:51:04;7.37;;;6.67;;
12567;SDS011;6349;50.904;6.136;2023-03-01T12:53:17;7.53;;;6.73;;
12567;SDS011;6349;50.904;6.136;2023-03-01T12:55:36;9.80;;;7.20;;
12567;SDS011;6349;50.904;6.136;2023-03-01T12:57:42;8.23;;;7.03;;
12567;SDS011;6349;50.904;6.136;2023-03-01T13:00:02;8.90;;;6.80;;
12567;SDS011;6349;50.904;6.136;2023-03-01T13:02:27;9.47;;;6.43;;
12567;SDS011;6349;50.904;6.136;2023-03-01T13:04:41;8.63;;;7.30;;
12567;SDS011;6349;50.904;6.136;2023-03-01T13:07:39;8.73;;;6.70;;
12567;SDS011;6349;50.904;6.136;2023-03-01T13:14:54;9.43;;;7.47;;
12567;SDS011;6349;50.904;6.136;2023-03-01T13:16:54;8.37;;;7.10;;
12567;SDS011;6349;50.904;6.136;2023-03-01T13:19:28;7.93;;;7.07;;
12567;SDS011;6349;50.904;6.136;2023-03-01T13:21:29;8.03;;;7.10;;
12567;SDS011;6349;50.904;6.136;2023-03-01T13:23:33;9.87;;;7.90;;
12567;SDS011;6349;50.904;6.136;2023-03-01T13:30:56;7.70;;;6.90;;
12567;SDS011;6349;50.904;6.136;2023-03-01T13:35:41;8.57;;;7.40;;